sensor_id;sensor_type;location;lat;lon;timestamp;pressure;altitude;pressure_sealevel;temperature;humidity
60976;BME280;46849;48.154;17.042;2022-07-23T00:00:21;98730.06;;;27.64;44.11
60976;BME280;46849;48.154;17.042;2022-07-23T00:03:06;98726.94;;;27.67;44.16
60976;BME280;46849;48.154;17.042;2022-07-23T00:05:51;98721.97;;;27.64;45.37
60976;BME280;46849;48.154;17.042;2022-07-23T00:08:36;98719.06;;;27.66;45.74
60976;BME280;46849;48.154;17.042;2022-07-23T00:11:20;98717.63;;;27.63;40.95
60976;BME280;46849;48.154;17.042;2022-07-23T00:14:06;98717.25;;;27.60;41.09
60976;BME280;46849;48.154;17.042;2022-07-23T00:16:51;98715.59;;;27.59;43.04
60976;BME280;46849;48.154;17.042;2022-07-23T00:19:36;98709.81;;;27.55;42.47
60976;BME280;46849;48.154;17.042;2022-07-23T00:22:21;98711.53;;;27.49;42.86
60976;BME280;46849;48.154;17.042;2022-07-23T00:25:06;98713.59;;;27.47;45.32
60976;BME280;46849;48.154;17.042;2022-07-23T00:27:50;98711.97;;;27.46;45.18
60976;BME280;46849;48.154;17.042;2022-07-23T00:30:35;98720.03;;;27.46;45.92
60976;BME280;46849;48.154;17.042;2022-07-23T00:33:20;98720.47;;;27.43;45.07
60976;BME280;46849;48.154;17.042;2022-07-23T00:36:04;98716.34;;;27.40;44.69
60976;BME280;46849;48.154;17.042;2022-07-23T00:38:49;98725.03;;;27.42;43.93
60976;BME280;46849;48.154;17.042;2022-07-23T00:41:34;98715.09;;;27.43;41.78
60976;BME280;46849;48.154;17.042;2022-07-23T00:44:20;98711.78;;;27.41;43.20
60976;BME280;46849;48.154;17.042;2022-07-23T00:47:06;98711.63;;;27.36;42.18
60976;BME280;46849;48.154;17.042;2022-07-23T00:49:51;98709.16;;;27.34;43.21
60976;BME280;46849;48.154;17.042;2022-07-23T00:52:36;98711.84;;;27.34;42.67
60976;BME280;46849;48.154;17.042;2022-07-23T00:55:21;98706.28;;;27.29;42.46
60976;BME280;46849;48.154;17.042;2022-07-23T00:58:06;98704.47;;;27.23;41.88
60976;BME280;46849;48.154;17.042;2022-07-23T01:00:53;98693.97;;;27.14;41.02
60976;BME280;46849;48.154;17.042;2022-07-23T01:03:38;98698.53;;;27.14;42.68
60976;BME280;46849;48.154;17.042;2022-07-23T01:06:22;98708.44;;;27.13;43.36
60976;BME280;46849;48.154;17.042;2022-07-23T01:09:07;98703.94;;;27.00;42.88
60976;BME280;46849;48.154;17.042;2022-07-23T01:11:54;98703.09;;;27.00;42.29
60976;BME280;46849;48.154;17.042;2022-07-23T01:14:39;98698.56;;;27.00;42.59
60976;BME280;46849;48.154;17.042;2022-07-23T01:17:25;98694.69;;;26.96;42.96
60976;BME280;46849;48.154;17.042;2022-07-23T01:20:09;98701.06;;;26.95;47.45
60976;BME280;46849;48.154;17.042;2022-07-23T01:22:55;98709.78;;;26.90;44.27
60976;BME280;46849;48.154;17.042;2022-07-23T01:25:53;98701.09;;;26.88;42.51
60976;BME280;46849;48.154;17.042;2022-07-23T01:28:39;98701.53;;;26.85;47.12
60976;BME280;46849;48.154;17.042;2022-07-23T01:31:24;98689.34;;;26.89;46.34
60976;BME280;46849;48.154;17.042;2022-07-23T01:34:09;98685.81;;;26.89;43.34
60976;BME280;46849;48.154;17.042;2022-07-23T01:36:57;98683.34;;;26.87;43.21
60976;BME280;46849;48.154;17.042;2022-07-23T01:39:42;98685.41;;;26.85;45.79
60976;BME280;46849;48.154;17.042;2022-07-23T01:42:26;98686.06;;;26.80;43.11
60976;BME280;46849;48.154;17.042;2022-07-23T01:45:11;98679.03;;;26.79;48.14
60976;BME280;46849;48.154;17.042;2022-07-23T01:48:00;98665.63;;;26.79;46.50
60976;BME280;46849;48.154;17.042;2022-07-23T01:50:48;98666.03;;;26.76;45.65
60976;BME280;46849;48.154;17.042;2022-07-23T01:53:43;98675.56;;;26.72;43.78
60976;BME280;46849;48.154;17.042;2022-07-23T01:56:28;98659.63;;;26.77;43.14
60976;BME280;46849;48.154;17.042;2022-07-23T01:59:14;98664.38;;;26.75;46.19
60976;BME280;46849;48.154;17.042;2022-07-23T02:01:59;98669.16;;;26.73;43.72
60976;BME280;46849;48.154;17.042;2022-07-23T02:04:43;98668.13;;;26.74;43.15
60976;BME280;46849;48.154;17.042;2022-07-23T02:07:29;98666.28;;;26.68;43.63
60976;BME280;46849;48.154;17.042;2022-07-23T02:10:14;98665.44;;;26.67;44.27
60976;BME280;46849;48.154;17.042;2022-07-23T02:12:58;98671.66;;;26.68;43.69
60976;BME280;46849;48.154;17.042;2022-07-23T02:15:43;98671.66;;;26.68;44.75
60976;BME280;46849;48.154;17.042;2022-07-23T02:18:27;98673.28;;;26.76;48.47
60976;BME280;46849;48.154;17.042;2022-07-23T02:21:12;98667.69;;;26.77;44.33
60976;BME280;46849;48.154;17.042;2022-07-23T02:23:57;98678.03;;;26.74;45.23
60976;BME280;46849;48.154;17.042;2022-07-23T02:26:42;98682.97;;;26.77;45.20
60976;BME280;46849;48.154;17.042;2022-07-23T02:29:27;98678.63;;;26.76;45.32
60976;BME280;46849;48.154;17.042;2022-07-23T02:32:13;98674.75;;;26.72;44.16
60976;BME280;46849;48.154;17.042;2022-07-23T02:34:58;98671.41;;;26.76;51.15
60976;BME280;46849;48.154;17.042;2022-07-23T02:37:43;98669.53;;;26.77;48.82
60976;BME280;46849;48.154;17.042;2022-07-23T02:40:28;98666.69;;;26.72;46.60
60976;BME280;46849;48.154;17.042;2022-07-23T02:43:13;98700.41;;;26.54;51.06
60976;BME280;46849;48.154;17.042;2022-07-23T02:45:58;98695.38;;;25.78;50.23
60976;BME280;46849;48.154;17.042;2022-07-23T02:48:43;98680.25;;;25.29;51.41
60976;BME280;46849;48.154;17.042;2022-07-23T02:51:28;98676.91;;;25.14;51.55
60976;BME280;46849;48.154;17.042;2022-07-23T02:54:17;98681.81;;;24.90;52.79
60976;BME280;46849;48.154;17.042;2022-07-23T02:57:02;98688.25;;;24.60;57.21
60976;BME280;46849;48.154;17.042;2022-07-23T02:59:47;98678.66;;;24.37;55.69
60976;BME280;46849;48.154;17.042;2022-07-23T03:02:31;98680.09;;;24.33;56.34
60976;BME280;46849;48.154;17.042;2022-07-23T03:05:16;98679.91;;;24.34;56.36
60976;BME280;46849;48.154;17.042;2022-07-23T03:08:01;98668.19;;;24.42;56.02
60976;BME280;46849;48.154;17.042;2022-07-23T03:10:46;98675.25;;;24.57;55.48
60976;BME280;46849;48.154;17.042;2022-07-23T03:13:31;98679.41;;;24.66;56.06
60976;BME280;46849;48.154;17.042;2022-07-23T03:16:16;98692.03;;;24.79;58.98
60976;BME280;46849;48.154;17.042;2022-07-23T03:19:01;98681.50;;;24.71;56.29
60976;BME280;46849;48.154;17.042;2022-07-23T03:21:45;98668.28;;;24.63;54.53
60976;BME280;46849;48.154;17.042;2022-07-23T03:24:31;98680.28;;;24.73;56.24
60976;BME280;46849;48.154;17.042;2022-07-23T03:27:42;98689.88;;;25.03;58.19
60976;BME280;46849;48.154;17.042;2022-07-23T03:30:29;98692.38;;;25.18;56.03
60976;BME280;46849;48.154;17.042;2022-07-23T03:33:15;98688.06;;;25.17;56.97
60976;BME280;46849;48.154;17.042;2022-07-23T03:36:03;98683.31;;;25.13;53.32
60976;BME280;46849;48.154;17.042;2022-07-23T03:38:51;98680.00;;;25.10;55.32
60976;BME280;46849;48.154;17.042;2022-07-23T03:41:36;98679.03;;;24.76;54.91
60976;BME280;46849;48.154;17.042;2022-07-23T03:44:21;98671.78;;;24.63;58.47
60976;BME280;46849;48.154;17.042;2022-07-23T03:47:06;98668.50;;;24.61;57.17
60976;BME280;46849;48.154;17.042;2022-07-23T03:49:50;98673.16;;;24.45;57.63
60976;BME280;46849;48.154;17.042;2022-07-23T03:52:36;98663.72;;;24.56;58.38
60976;BME280;46849;48.154;17.042;2022-07-23T03:55:21;98655.69;;;24.50;58.74
60976;BME280;46849;48.154;17.042;2022-07-23T03:58:06;98656.53;;;24.57;56.28
60976;BME280;46849;48.154;17.042;2022-07-23T04:00:50;98647.41;;;24.44;56.75
60976;BME280;46849;48.154;17.042;2022-07-23T04:03:35;98665.59;;;24.56;56.56
60976;BME280;46849;48.154;17.042;2022-07-23T04:06:20;98653.56;;;24.45;56.85
60976;BME280;46849;48.154;17.042;2022-07-23T04:09:06;98650.41;;;24.77;55.96
60976;BME280;46849;48.154;17.042;2022-07-23T04:11:51;98650.13;;;25.00;56.00
60976;BME280;46849;48.154;17.042;2022-07-23T04:14:38;98662.91;;;25.12;55.26
60976;BME280;46849;48.154;17.042;2022-07-23T04:17:22;98672.22;;;25.29;57.26
60976;BME280;46849;48.154;17.042;2022-07-23T04:20:08;98672.81;;;25.31;52.94
60976;BME280;46849;48.154;17.042;2022-07-23T04:22:59;98670.56;;;25.42;53.81
60976;BME280;46849;48.154;17.042;2022-07-23T04:25:45;98675.72;;;25.43;51.87
60976;BME280;46849;48.154;17.042;2022-07-23T04:28:29;98676.97;;;25.61;53.95
60976;BME280;46849;48.154;17.042;2022-07-23T04:31:14;98691.03;;;25.63;55.77
60976;BME280;46849;48.154;17.042;2022-07-23T04:33:59;98698.81;;;25.31;59.04
60976;BME280;46849;48.154;17.042;2022-07-23T04:36:44;98698.97;;;25.16;56.71
60976;BME280;46849;48.154;17.042;2022-07-23T04:39:28;98705.97;;;25.10;54.35
60976;BME280;46849;48.154;17.042;2022-07-23T04:42:13;98714.03;;;25.10;54.68
60976;BME280;46849;48.154;17.042;2022-07-23T04:44:59;98716.69;;;25.03;55.87
60976;BME280;46849;48.154;17.042;2022-07-23T04:47:44;98722.31;;;24.80;55.41
60976;BME280;46849;48.154;17.042;2022-07-23T04:50:30;98728.25;;;24.68;56.38
60976;BME280;46849;48.154;17.042;2022-07-23T04:53:16;98727.31;;;24.47;56.58
60976;BME280;46849;48.154;17.042;2022-07-23T04:56:02;98730.19;;;24.46;58.26
60976;BME280;46849;48.154;17.042;2022-07-23T04:58:48;98731.41;;;24.43;56.69
60976;BME280;46849;48.154;17.042;2022-07-23T05:01:33;98726.16;;;24.64;56.59
60976;BME280;46849;48.154;17.042;2022-07-23T05:04:18;98727.22;;;24.69;55.64
60976;BME280;46849;48.154;17.042;2022-07-23T05:07:04;98725.09;;;24.93;57.21
60976;BME280;46849;48.154;17.042;2022-07-23T05:09:49;98729.50;;;25.28;55.14
60976;BME280;46849;48.154;17.042;2022-07-23T05:12:33;98733.34;;;25.81;58.15
60976;BME280;46849;48.154;17.042;2022-07-23T05:15:18;98742.63;;;26.13;52.68
60976;BME280;46849;48.154;17.042;2022-07-23T05:18:03;98745.66;;;26.30;57.23
60976;BME280;46849;48.154;17.042;2022-07-23T05:20:49;98738.81;;;26.61;56.30
60976;BME280;46849;48.154;17.042;2022-07-23T05:23:37;98724.41;;;27.01;54.94
60976;BME280;46849;48.154;17.042;2022-07-23T05:26:22;98718.94;;;26.76;53.41
60976;BME280;46849;48.154;17.042;2022-07-23T05:29:07;98713.34;;;26.77;53.41
60976;BME280;46849;48.154;17.042;2022-07-23T05:31:53;98714.78;;;26.80;51.78
60976;BME280;46849;48.154;17.042;2022-07-23T05:34:38;98730.97;;;26.66;53.00
60976;BME280;46849;48.154;17.042;2022-07-23T05:37:24;98721.28;;;26.59;54.55
60976;BME280;46849;48.154;17.042;2022-07-23T05:40:09;98721.00;;;26.74;54.19
60976;BME280;46849;48.154;17.042;2022-07-23T05:42:55;98714.50;;;27.02;56.27
60976;BME280;46849;48.154;17.042;2022-07-23T05:45:40;98717.97;;;26.63;54.35
60976;BME280;46849;48.154;17.042;2022-07-23T05:48:25;98716.28;;;26.62;54.14
60976;BME280;46849;48.154;17.042;2022-07-23T05:51:33;98717.72;;;26.72;53.31
60976;BME280;46849;48.154;17.042;2022-07-23T05:54:18;98708.63;;;26.73;53.23
60976;BME280;46849;48.154;17.042;2022-07-23T05:57:04;98707.00;;;26.65;56.40
60976;BME280;46849;48.154;17.042;2022-07-23T05:59:51;98711.41;;;26.91;54.16
60976;BME280;46849;48.154;17.042;2022-07-23T06:02:37;98712.31;;;27.24;52.48
60976;BME280;46849;48.154;17.042;2022-07-23T06:05:22;98715.03;;;27.82;51.54
60976;BME280;46849;48.154;17.042;2022-07-23T06:08:08;98726.50;;;27.96;52.86
60976;BME280;46849;48.154;17.042;2022-07-23T06:10:53;98739.41;;;27.87;55.65
60976;BME280;46849;48.154;17.042;2022-07-23T06:13:38;98731.78;;;27.84;59.58
60976;BME280;46849;48.154;17.042;2022-07-23T06:16:23;98734.91;;;28.07;55.69
60976;BME280;46849;48.154;17.042;2022-07-23T06:19:08;98741.91;;;28.08;55.61
60976;BME280;46849;48.154;17.042;2022-07-23T06:21:53;98738.72;;;27.99;54.63
60976;BME280;46849;48.154;17.042;2022-07-23T06:24:37;98744.16;;;28.11;53.98
60976;BME280;46849;48.154;17.042;2022-07-23T06:27:22;98746.72;;;28.69;57.97
60976;BME280;46849;48.154;17.042;2022-07-23T06:30:08;98737.78;;;29.06;53.23
60976;BME280;46849;48.154;17.042;2022-07-23T06:32:53;98736.53;;;29.08;52.08
60976;BME280;46849;48.154;17.042;2022-07-23T06:35:40;98734.06;;;29.07;50.30
60976;BME280;46849;48.154;17.042;2022-07-23T06:38:25;98728.06;;;29.05;49.25
60976;BME280;46849;48.154;17.042;2022-07-23T06:41:10;98736.41;;;28.65;49.95
60976;BME280;46849;48.154;17.042;2022-07-23T06:43:55;98730.78;;;28.67;51.01
60976;BME280;46849;48.154;17.042;2022-07-23T06:46:40;98736.25;;;28.60;52.71
60976;BME280;46849;48.154;17.042;2022-07-23T06:49:25;98736.69;;;28.38;52.94
60976;BME280;46849;48.154;17.042;2022-07-23T06:52:10;98741.34;;;28.06;53.31
60976;BME280;46849;48.154;17.042;2022-07-23T06:54:55;98742.69;;;28.59;51.43
60976;BME280;46849;48.154;17.042;2022-07-23T06:57:39;98731.97;;;28.90;51.97
60976;BME280;46849;48.154;17.042;2022-07-23T07:00:25;98730.38;;;29.20;48.79
60976;BME280;46849;48.154;17.042;2022-07-23T07:03:10;98729.94;;;29.35;49.46
60976;BME280;46849;48.154;17.042;2022-07-23T07:05:55;98726.53;;;29.82;45.19
60976;BME280;46849;48.154;17.042;2022-07-23T07:08:41;98731.38;;;30.40;43.44
60976;BME280;46849;48.154;17.042;2022-07-23T07:11:27;98726.56;;;29.94;43.40
60976;BME280;46849;48.154;17.042;2022-07-23T07:14:12;98725.50;;;30.31;42.17
60976;BME280;46849;48.154;17.042;2022-07-23T07:16:57;98723.38;;;30.33;40.00
60976;BME280;46849;48.154;17.042;2022-07-23T07:19:41;98721.84;;;30.13;40.88
60976;BME280;46849;48.154;17.042;2022-07-23T07:22:26;98717.50;;;29.77;41.66
60976;BME280;46849;48.154;17.042;2022-07-23T07:25:11;98715.91;;;29.57;46.04
60976;BME280;46849;48.154;17.042;2022-07-23T07:27:56;98729.59;;;29.86;42.24
60976;BME280;46849;48.154;17.042;2022-07-23T07:30:40;98724.91;;;30.05;41.43
60976;BME280;46849;48.154;17.042;2022-07-23T07:33:25;98728.06;;;30.38;41.87
60976;BME280;46849;48.154;17.042;2022-07-23T07:36:10;98721.78;;;30.73;40.74
60976;BME280;46849;48.154;17.042;2022-07-23T07:38:55;98720.66;;;31.28;40.49
60976;BME280;46849;48.154;17.042;2022-07-23T07:41:39;98719.16;;;31.66;38.38
60976;BME280;46849;48.154;17.042;2022-07-23T07:44:24;98719.91;;;31.79;39.91
60976;BME280;46849;48.154;17.042;2022-07-23T07:47:09;98731.78;;;31.43;38.81
60976;BME280;46849;48.154;17.042;2022-07-23T07:49:54;98726.31;;;31.73;37.21
60976;BME280;46849;48.154;17.042;2022-07-23T07:52:39;98735.34;;;31.32;38.22
60976;BME280;46849;48.154;17.042;2022-07-23T07:55:24;98733.34;;;31.56;36.76
60976;BME280;46849;48.154;17.042;2022-07-23T07:58:08;98729.72;;;32.42;37.00
60976;BME280;46849;48.154;17.042;2022-07-23T08:00:54;98743.78;;;32.56;35.85
60976;BME280;46849;48.154;17.042;2022-07-23T08:03:39;98740.81;;;32.01;37.94
60976;BME280;46849;48.154;17.042;2022-07-23T08:06:23;98731.16;;;32.67;36.32
60976;BME280;46849;48.154;17.042;2022-07-23T08:09:08;98736.09;;;32.70;36.25
60976;BME280;46849;48.154;17.042;2022-07-23T08:11:53;98739.56;;;32.26;40.79
60976;BME280;46849;48.154;17.042;2022-07-23T08:14:37;98733.53;;;31.38;39.08
60976;BME280;46849;48.154;17.042;2022-07-23T08:17:22;98736.28;;;31.89;37.73
60976;BME280;46849;48.154;17.042;2022-07-23T08:20:08;98734.69;;;32.05;40.49
60976;BME280;46849;48.154;17.042;2022-07-23T08:22:59;98734.31;;;32.59;40.54
60976;BME280;46849;48.154;17.042;2022-07-23T08:25:46;98733.72;;;32.34;38.06
60976;BME280;46849;48.154;17.042;2022-07-23T08:28:31;98733.22;;;32.60;40.31
60976;BME280;46849;48.154;17.042;2022-07-23T08:31:17;98730.69;;;33.53;36.71
60976;BME280;46849;48.154;17.042;2022-07-23T08:34:03;98729.50;;;33.11;36.73
60976;BME280;46849;48.154;17.042;2022-07-23T08:36:47;98729.81;;;32.07;39.44
60976;BME280;46849;48.154;17.042;2022-07-23T08:39:32;98732.78;;;32.45;39.70
60976;BME280;46849;48.154;17.042;2022-07-23T08:42:18;98734.41;;;31.55;39.22
60976;BME280;46849;48.154;17.042;2022-07-23T08:45:03;98735.47;;;32.23;40.98
60976;BME280;46849;48.154;17.042;2022-07-23T08:47:54;98729.81;;;33.14;37.42
60976;BME280;46849;48.154;17.042;2022-07-23T08:50:54;98737.53;;;33.55;38.15
60976;BME280;46849;48.154;17.042;2022-07-23T08:53:40;98742.75;;;34.00;40.26
60976;BME280;46849;48.154;17.042;2022-07-23T08:56:25;98718.91;;;34.13;35.34
60976;BME280;46849;48.154;17.042;2022-07-23T08:59:11;98729.34;;;33.83;35.90
60976;BME280;46849;48.154;17.042;2022-07-23T09:01:57;98718.09;;;33.69;37.75
60976;BME280;46849;48.154;17.042;2022-07-23T09:04:44;98728.81;;;33.53;36.63
60976;BME280;46849;48.154;17.042;2022-07-23T09:07:29;98724.81;;;34.43;36.87
60976;BME280;46849;48.154;17.042;2022-07-23T09:10:13;98722.66;;;35.71;35.06
60976;BME280;46849;48.154;17.042;2022-07-23T09:12:58;98731.59;;;35.14;35.94
60976;BME280;46849;48.154;17.042;2022-07-23T09:15:49;98731.94;;;33.67;36.04
60976;BME280;46849;48.154;17.042;2022-07-23T09:18:50;98725.06;;;33.92;34.90
60976;BME280;46849;48.154;17.042;2022-07-23T09:21:39;98721.72;;;34.82;33.60
60976;BME280;46849;48.154;17.042;2022-07-23T09:24:23;98717.19;;;34.39;35.92
60976;BME280;46849;48.154;17.042;2022-07-23T09:27:08;98720.22;;;35.49;35.50
60976;BME280;46849;48.154;17.042;2022-07-23T09:29:56;98717.75;;;35.42;32.59
60976;BME280;46849;48.154;17.042;2022-07-23T09:32:41;98707.44;;;35.81;31.83
60976;BME280;46849;48.154;17.042;2022-07-23T09:38:31;98709.56;;;35.99;34.70
60976;BME280;46849;48.154;17.042;2022-07-23T09:41:16;98713.94;;;35.54;34.98
60976;BME280;46849;48.154;17.042;2022-07-23T09:44:30;98708.78;;;35.47;33.82
60976;BME280;46849;48.154;17.042;2022-07-23T09:47:28;98707.69;;;35.22;31.71
60976;BME280;46849;48.154;17.042;2022-07-23T09:50:13;98699.44;;;36.16;35.96
60976;BME280;46849;48.154;17.042;2022-07-23T09:52:58;98691.56;;;36.09;31.28
60976;BME280;46849;48.154;17.042;2022-07-23T09:55:43;98696.00;;;35.89;31.57
60976;BME280;46849;48.154;17.042;2022-07-23T09:58:28;98692.16;;;36.00;31.76
60976;BME280;46849;48.154;17.042;2022-07-23T10:01:15;98689.78;;;37.05;34.18
60976;BME280;46849;48.154;17.042;2022-07-23T10:04:01;98692.13;;;37.28;31.01
60976;BME280;46849;48.154;17.042;2022-07-23T10:07:07;98688.88;;;36.80;34.34
60976;BME280;46849;48.154;17.042;2022-07-23T10:10:13;98681.25;;;37.22;28.63
60976;BME280;46849;48.154;17.042;2022-07-23T10:12:59;98685.03;;;37.21;33.78
60976;BME280;46849;48.154;17.042;2022-07-23T10:16:00;98678.25;;;36.79;31.58
60976;BME280;46849;48.154;17.042;2022-07-23T10:18:45;98679.41;;;36.62;32.27
60976;BME280;46849;48.154;17.042;2022-07-23T10:21:43;98683.09;;;36.16;31.83
60976;BME280;46849;48.154;17.042;2022-07-23T10:24:50;98673.06;;;37.22;34.23
60976;BME280;46849;48.154;17.042;2022-07-23T10:28:06;98672.47;;;36.14;31.58
60976;BME280;46849;48.154;17.042;2022-07-23T10:31:13;98670.78;;;36.95;30.13
60976;BME280;46849;48.154;17.042;2022-07-23T10:36:59;98660.00;;;37.79;30.71
60976;BME280;46849;48.154;17.042;2022-07-23T10:39:47;98665.34;;;38.38;33.79
60976;BME280;46849;48.154;17.042;2022-07-23T10:42:34;98670.91;;;37.79;31.25
60976;BME280;46849;48.154;17.042;2022-07-23T10:45:35;98671.97;;;36.78;36.32
60976;BME280;46849;48.154;17.042;2022-07-23T10:48:23;98663.81;;;37.48;35.48
60976;BME280;46849;48.154;17.042;2022-07-23T10:51:14;98666.84;;;37.46;32.16
60976;BME280;46849;48.154;17.042;2022-07-23T10:53:59;98662.78;;;37.74;31.44
60976;BME280;46849;48.154;17.042;2022-07-23T11:03:02;98648.59;;;38.84;35.27
60976;BME280;46849;48.154;17.042;2022-07-23T11:05:51;98647.25;;;39.00;30.61
60976;BME280;46849;48.154;17.042;2022-07-23T11:08:35;98627.03;;;37.70;33.87
60976;BME280;46849;48.154;17.042;2022-07-23T11:11:20;98635.03;;;38.35;33.29
60976;BME280;46849;48.154;17.042;2022-07-23T11:14:05;98624.78;;;37.77;32.24
60976;BME280;46849;48.154;17.042;2022-07-23T11:16:54;98617.44;;;37.73;31.45
60976;BME280;46849;48.154;17.042;2022-07-23T11:25:28;98617.25;;;39.76;27.93
60976;BME280;46849;48.154;17.042;2022-07-23T11:28:18;98615.03;;;39.11;24.73
60976;BME280;46849;48.154;17.042;2022-07-23T11:31:17;98608.47;;;39.12;23.72
60976;BME280;46849;48.154;17.042;2022-07-23T11:37:38;98618.28;;;39.33;24.25
60976;BME280;46849;48.154;17.042;2022-07-23T11:40:25;98610.19;;;39.41;27.07
60976;BME280;46849;48.154;17.042;2022-07-23T11:43:11;98603.41;;;39.53;22.49
60976;BME280;46849;48.154;17.042;2022-07-23T11:45:59;98609.97;;;39.38;25.68
60976;BME280;46849;48.154;17.042;2022-07-23T11:48:44;98597.53;;;39.60;25.53
60976;BME280;46849;48.154;17.042;2022-07-23T11:51:28;98599.66;;;39.91;28.55
60976;BME280;46849;48.154;17.042;2022-07-23T11:54:16;98603.25;;;39.77;26.60
60976;BME280;46849;48.154;17.042;2022-07-23T11:57:02;98595.66;;;40.39;29.02
60976;BME280;46849;48.154;17.042;2022-07-23T11:59:50;98598.84;;;38.81;25.93
60976;BME280;46849;48.154;17.042;2022-07-23T12:02:35;98595.44;;;39.23;28.32
60976;BME280;46849;48.154;17.042;2022-07-23T12:05:26;98594.59;;;39.56;28.18
60976;BME280;46849;48.154;17.042;2022-07-23T12:08:10;98583.94;;;39.83;27.48
60976;BME280;46849;48.154;17.042;2022-07-23T12:10:55;98582.28;;;39.53;22.95
60976;BME280;46849;48.154;17.042;2022-07-23T12:13:40;98570.91;;;39.18;23.53
60976;BME280;46849;48.154;17.042;2022-07-23T12:16:25;98580.84;;;39.14;24.81
60976;BME280;46849;48.154;17.042;2022-07-23T12:19:09;98591.16;;;38.64;29.05
60976;BME280;46849;48.154;17.042;2022-07-23T12:21:54;98594.84;;;38.54;27.94
60976;BME280;46849;48.154;17.042;2022-07-23T12:25:05;98594.03;;;38.92;27.53
60976;BME280;46849;48.154;17.042;2022-07-23T12:28:07;98587.78;;;38.73;25.04
60976;BME280;46849;48.154;17.042;2022-07-23T12:30:54;98585.19;;;37.75;30.08
60976;BME280;46849;48.154;17.042;2022-07-23T12:33:39;98578.16;;;37.09;32.92
60976;BME280;46849;48.154;17.042;2022-07-23T12:36:37;98576.47;;;36.38;28.19
60976;BME280;46849;48.154;17.042;2022-07-23T12:39:31;98570.75;;;36.80;30.98
60976;BME280;46849;48.154;17.042;2022-07-23T12:42:16;98564.97;;;36.87;29.78
60976;BME280;46849;48.154;17.042;2022-07-23T12:45:10;98572.47;;;36.65;31.79
60976;BME280;46849;48.154;17.042;2022-07-23T12:48:03;98584.09;;;36.41;30.37
60976;BME280;46849;48.154;17.042;2022-07-23T12:51:01;98587.84;;;35.90;31.47
60976;BME280;46849;48.154;17.042;2022-07-23T12:53:53;98582.44;;;35.69;32.02
60976;BME280;46849;48.154;17.042;2022-07-23T12:56:40;98582.78;;;35.20;34.38
60976;BME280;46849;48.154;17.042;2022-07-23T12:59:30;98599.91;;;34.89;32.19
60976;BME280;46849;48.154;17.042;2022-07-23T13:02:15;98596.00;;;34.54;33.44
60976;BME280;46849;48.154;17.042;2022-07-23T13:05:00;98588.69;;;34.60;35.01
60976;BME280;46849;48.154;17.042;2022-07-23T13:07:44;98595.75;;;34.45;36.04
60976;BME280;46849;48.154;17.042;2022-07-23T13:10:29;98610.38;;;34.34;37.46
60976;BME280;46849;48.154;17.042;2022-07-23T13:13:15;98605.88;;;34.01;36.63
60976;BME280;46849;48.154;17.042;2022-07-23T13:16:01;98610.06;;;33.71;36.84
60976;BME280;46849;48.154;17.042;2022-07-23T13:18:46;98615.91;;;33.58;39.63
60976;BME280;46849;48.154;17.042;2022-07-23T13:21:30;98625.75;;;33.26;37.76
60976;BME280;46849;48.154;17.042;2022-07-23T13:24:16;98628.94;;;32.90;39.48
60976;BME280;46849;48.154;17.042;2022-07-23T13:27:00;98634.22;;;32.52;41.24
60976;BME280;46849;48.154;17.042;2022-07-23T13:29:45;98640.47;;;32.52;43.69
60976;BME280;46849;48.154;17.042;2022-07-23T13:32:29;98643.59;;;32.44;41.36
60976;BME280;46849;48.154;17.042;2022-07-23T13:35:14;98651.84;;;32.32;43.68
60976;BME280;46849;48.154;17.042;2022-07-23T13:37:59;98636.88;;;32.02;43.42
60976;BME280;46849;48.154;17.042;2022-07-23T13:40:45;98647.88;;;31.78;44.60
60976;BME280;46849;48.154;17.042;2022-07-23T13:43:31;98647.56;;;31.74;42.26
60976;BME280;46849;48.154;17.042;2022-07-23T13:46:16;98651.09;;;31.57;45.50
60976;BME280;46849;48.154;17.042;2022-07-23T13:49:01;98649.53;;;31.62;46.37
60976;BME280;46849;48.154;17.042;2022-07-23T13:51:45;98656.16;;;31.54;43.07
60976;BME280;46849;48.154;17.042;2022-07-23T13:54:30;98668.47;;;31.44;43.89
60976;BME280;46849;48.154;17.042;2022-07-23T13:57:15;98672.97;;;31.39;42.68
60976;BME280;46849;48.154;17.042;2022-07-23T14:00:00;98659.31;;;30.99;43.79
60976;BME280;46849;48.154;17.042;2022-07-23T14:02:45;98674.13;;;30.96;45.09
60976;BME280;46849;48.154;17.042;2022-07-23T14:05:31;98673.00;;;30.80;44.16
60976;BME280;46849;48.154;17.042;2022-07-23T14:08:16;98671.50;;;30.84;44.16
60976;BME280;46849;48.154;17.042;2022-07-23T14:11:01;98666.97;;;30.49;45.84
60976;BME280;46849;48.154;17.042;2022-07-23T14:13:45;98669.03;;;30.30;43.00
60976;BME280;46849;48.154;17.042;2022-07-23T14:16:30;98662.09;;;30.10;46.49
60976;BME280;46849;48.154;17.042;2022-07-23T14:19:15;98650.59;;;30.27;43.21
60976;BME280;46849;48.154;17.042;2022-07-23T14:21:59;98636.41;;;29.95;43.48
60976;BME280;46849;48.154;17.042;2022-07-23T14:24:44;98630.25;;;30.36;44.53
60976;BME280;46849;48.154;17.042;2022-07-23T14:27:29;98618.78;;;30.58;44.13
60976;BME280;46849;48.154;17.042;2022-07-23T14:30:14;98617.16;;;30.57;45.03
60976;BME280;46849;48.154;17.042;2022-07-23T14:32:59;98616.34;;;30.85;42.42
60976;BME280;46849;48.154;17.042;2022-07-23T14:35:43;98613.66;;;31.03;42.82
60976;BME280;46849;48.154;17.042;2022-07-23T14:38:28;98604.09;;;31.29;41.13
60976;BME280;46849;48.154;17.042;2022-07-23T14:41:14;98603.22;;;31.58;37.77
60976;BME280;46849;48.154;17.042;2022-07-23T14:43:59;98609.75;;;31.62;39.16
60976;BME280;46849;48.154;17.042;2022-07-23T14:46:43;98622.81;;;31.88;40.13
60976;BME280;46849;48.154;17.042;2022-07-23T14:49:28;98609.09;;;32.12;38.28
60976;BME280;46849;48.154;17.042;2022-07-23T14:52:13;98609.72;;;32.64;38.53